Latest Weather Observations for Roebourne Airport

IDW60801

Issued at 6:35 pm WST Saturday 1 November 2014 (issued every 30 minutes, with the page automatically refreshed every 10 minutes)

About weather observations | Map of weather stations | Latest weather observations for WA | Other Formats
Station Details ID: 004090 Name: ROEBOURNE AERO Lat: -20.76 Lon: 117.16 Height: 10.7 m
Data from the previous 72 hours. | See also: Recent months at Roebourne Airport
Date/Time
WST
Temp
°C
App
Temp
°C
Dew
Point
Rel
Hum
%
Delta-T
°C
Wind Press
QNH
hPa
Press
MSL
hPa
Rain
since 9 am
mm
Dir
 
Spd
km/h
Gust
km/h
Spd
kts
Gust
kts
01/06:30pm 32.0 27.4 12.3 30 11.7 WNW 28 35 15 19 1007.0 1007.0 0.0
01/06:00pm 33.3 27.8 11.8 27 12.7 WNW 32 39 17 21 1006.7 1006.7 0.0
01/05:30pm 34.7 28.6 10.5 23 14.1 WNW 33 46 18 25 1006.4 1006.4 0.0
01/05:00pm 36.3 29.4 9.0 19 15.7 WNW 35 43 19 23 1006.2 1006.2 0.0
01/04:30pm 38.0 30.6 6.9 15 17.4 WNW 35 46 19 25 1006.0 1006.0 0.0
01/04:00pm 39.1 30.7 5.7 13 18.5 WNW 39 50 21 27 1005.9 1005.9 0.0
01/03:30pm 39.7 30.9 3.7 11 19.4 WNW 39 50 21 27 1005.7 1005.7 0.0
01/03:00pm 40.7 33.1 5.7 12 19.5 WNW 35 44 19 24 1006.0 1006.0 0.0
01/02:30pm 41.8 34.2 4.0 10 20.6 WNW 33 44 18 24 1006.0 1006.0 0.0
01/02:00pm 42.4 34.8 2.9 9 21.3 WNW 32 41 17 22 1006.3 1006.3 0.0
01/01:30pm 42.4 35.8 -0.6 7 22.0 WSW 24 33 13 18 1006.6 1006.6 0.0
01/01:00pm 41.8 35.8 0.8 8 21.4 W 22 35 12 19 1007.1 1007.1 0.0
01/12:30pm 42.3 35.5 -5.1 5 22.7 WSW 22 37 12 20 1007.5 1007.5 0.0
01/12:00pm 41.1 35.9 -6.0 5 22.1 SSW 13 19 7 10 1008.0 1008.0 0.0
01/11:42am 41.2 33.2 -5.9 5 22.1 WSW 28 50 15 27 1008.2 1008.2 0.0
01/11:30am 40.6 35.3 -3.9 6 21.4 SSW 15 24 8 13 1008.4 1008.4 0.0
01/11:00am 40.3 34.2 -4.1 6 21.3 W 19 28 10 15 1008.7 1008.7 0.0
01/10:30am 39.4 33.2 -4.8 6 20.8 WSW 19 33 10 18 1009.2 1009.2 0.0
01/10:00am 39.3 35.5 -1.0 8 20.2 S 9 13 5 7 1009.4 1009.4 0.0
01/09:30am 37.5 33.7 -0.7 9 19.0 SSW 9 17 5 9 1009.7 1009.7 0.0
01/09:00am 36.8 33.9 1.5 11 18.1 SSE 6 13 3 7 1010.0 1010.0 -
01/08:30am 34.8 31.1 2.3 13 16.6 S 11 15 6 8 1010.1 1010.1 -
01/08:00am 33.6 30.3 4.3 16 15.4 SSW 11 17 6 9 1009.9 1009.9 -
01/07:30am 30.7 27.4 4.4 19 13.6 SW 11 15 6 8 1009.8 1009.8 -
01/07:00am 29.1 25.7 3.9 20 12.8 SW 11 15 6 8 1009.6 1009.6 -
01/06:30am 26.6 24.0 4.4 24 11.2 WSW 7 11 4 6 1009.5 1009.5 -
01/06:00am 23.5 20.9 4.0 28 9.6 W 7 9 4 5 1009.3 1009.3 -
01/05:30am 23.1 19.2 3.6 28 9.5 SW 13 13 7 7 1008.9 1008.9 -
01/05:00am 23.5 19.6 3.4 27 9.8 WSW 13 15 7 8 1008.8 1008.8 -
01/04:30am 23.4 19.9 3.4 27 9.7 WSW 11 13 6 7 1008.6 1008.6 -
01/04:00am 24.4 20.6 3.7 26 10.2 SW 13 15 7 8 1008.4 1008.4 -
01/03:30am 25.0 21.3 4.7 27 10.2 WSW 13 15 7 8 1008.3 1008.3 -
01/03:00am 25.2 21.8 5.9 29 9.9 WSW 13 15 7 8 1008.1 1008.1 -
01/02:30am 25.1 22.2 8.1 34 9.1 SW 13 13 7 7 1008.2 1008.2 -
01/02:00am 26.2 22.9 9.5 35 9.2 SW 17 19 9 10 1008.1 1008.1 -
01/01:30am 26.2 23.9 11.9 41 8.2 SW 15 17 8 9 1008.2 1008.2 -
01/01:00am 26.9 24.8 12.5 40 8.4 SW 15 19 8 10 1008.4 1008.4 -
01/12:30am 26.9 25.3 12.9 42 8.2 SW 13 17 7 9 1008.8 1008.8 -
01/12:00am 27.5 25.9 12.7 40 8.7 WSW 13 15 7 8 1008.9 1008.9 -
 
Date/Time
WST
Temp
°C
App
Temp
°C
Dew
Point
Rel
Hum
%
Delta-T
°C
Wind Press
QNH
hPa
Press
MSL
hPa
Rain
since 9 am
mm
Dir
 
Spd
km/h
Gust
km/h
Spd
kts
Gust
kts
31/11:00pm 28.5 26.4 12.4 37 9.4 SW 15 19 8 10 1009.5 1009.5 0.0
31/10:30pm 29.3 27.2 12.3 35 9.9 WSW 15 20 8 11 1009.7 1009.7 0.0
31/10:00pm 28.5 27.2 11.1 34 10.0 W 9 13 5 7 1009.8 1009.8 0.0
31/09:30pm 29.9 27.9 11.4 32 10.7 W 13 15 7 8 1009.7 1009.7 0.0
31/09:00pm 30.7 28.2 9.6 27 11.9 W 13 17 7 9 1009.6 1009.6 0.0
31/08:30pm 31.6 27.8 1.8 15 14.8 WSW 11 13 6 7 1009.4 1009.4 0.0
31/08:00pm 33.7 29.1 1.5 13 16.2 WSW 15 20 8 11 1009.1 1009.1 0.0
31/07:30pm 34.5 29.6 2.1 13 16.5 SW 17 20 9 11 1008.8 1008.8 0.0
31/07:00pm 35.4 30.3 2.8 13 16.9 SW 19 24 10 13 1008.3 1008.3 0.0
31/06:30pm 36.6 30.9 2.6 12 17.7 SW 22 32 12 17 1007.9 1007.9 0.0
31/06:00pm 37.8 30.7 3.5 12 18.2 WSW 30 39 16 21 1007.6 1007.6 0.0
31/05:30pm 38.6 31.2 4.1 12 18.6 WSW 32 43 17 23 1007.2 1007.2 0.0
31/05:00pm 39.4 31.7 3.5 11 19.3 WSW 33 43 18 23 1006.9 1006.9 0.0
31/04:30pm 40.2 32.6 4.1 11 19.6 WSW 33 50 18 27 1006.7 1006.7 0.0
31/04:18pm 40.4 32.9 4.3 11 19.7 WSW 33 52 18 28 1006.6 1006.6 0.0
31/04:00pm 40.7 33.2 4.5 11 19.8 WSW 33 46 18 25 1006.5 1006.5 0.0
31/03:47pm 40.8 33.5 4.6 11 19.8 WSW 32 50 17 27 1006.6 1006.6 0.0
31/03:30pm 41.0 33.5 4.7 11 19.9 WSW 33 48 18 26 1006.6 1006.6 0.0
31/03:00pm 41.6 34.0 3.8 10 20.6 WSW 33 52 18 28 1006.6 1006.6 0.0
31/02:30pm 41.6 33.2 3.8 10 20.5 W 37 54 20 29 1006.8 1006.8 0.0
31/02:11pm 41.1 32.6 3.4 10 20.3 WSW 37 56 20 30 1006.9 1006.9 0.0
31/02:00pm 41.4 33.4 3.7 10 20.5 W 35 50 19 27 1007.1 1007.1 0.0
31/01:58pm 41.7 33.0 3.9 10 20.6 W 39 50 21 27 1007.1 1007.1 0.0
31/01:38pm 42.2 34.3 4.3 10 20.8 WSW 35 54 19 29 1007.2 1007.2 0.0
31/01:30pm 41.2 33.5 3.5 10 20.4 W 33 48 18 26 1007.3 1007.3 0.0
31/01:27pm 41.7 32.6 3.9 10 20.6 W 41 48 22 26 1007.4 1007.4 0.0
31/01:25pm 41.7 33.7 3.9 10 20.6 WSW 35 54 19 29 1007.4 1007.4 0.0
31/01:00pm 41.5 33.1 3.7 10 20.5 WSW 37 52 20 28 1007.6 1007.6 0.0
31/12:35pm 41.7 33.0 3.9 10 20.6 SW 39 57 21 31 1007.9 1007.9 0.0
31/12:34pm 41.1 32.3 3.4 10 20.3 SW 39 52 21 28 1007.9 1007.9 0.0
31/12:30pm 41.7 32.3 2.4 9 20.9 W 41 50 22 27 1007.8 1007.8 0.0
31/12:29pm 41.4 32.4 2.2 9 20.8 W 39 48 21 26 1007.8 1007.8 0.0
31/12:00pm 41.5 32.8 2.3 9 20.9 SW 37 61 20 33 1008.2 1008.2 0.0
31/11:30am 40.6 31.8 1.6 9 20.4 WSW 37 57 20 31 1008.6 1008.6 0.0
31/11:23am 40.5 32.4 3.0 10 20.0 WSW 35 57 19 31 1008.6 1008.6 0.0
31/11:00am 40.1 31.5 2.7 10 19.9 WSW 37 54 20 29 1008.8 1008.8 0.0
31/10:57am 40.2 32.0 2.8 10 19.9 WSW 35 54 19 29 1008.9 1008.9 0.0
31/10:30am 39.5 30.8 2.2 10 19.6 SW 37 48 20 26 1009.2 1009.2 0.0
31/10:00am 39.4 32.3 3.5 11 19.2 SW 30 44 16 24 1009.5 1009.5 0.0
31/09:30am 36.9 31.0 6.0 15 17.0 SW 26 37 14 20 1009.7 1009.7 0.0
31/09:00am 35.6 29.9 6.8 17 15.9 SW 26 35 14 19 1010.0 1010.0 0.0
31/08:30am 34.7 29.6 7.7 19 15.1 SW 24 33 13 18 1010.0 1010.0 0.0
31/08:00am 32.9 27.6 9.7 24 13.2 SW 28 35 15 19 1009.8 1009.8 0.0
31/07:30am 30.9 26.1 11.8 31 11.2 SW 28 35 15 19 1009.7 1009.7 0.0
31/07:00am 29.4 25.4 11.9 34 10.2 SW 24 30 13 16 1009.6 1009.6 0.0
31/06:30am 27.7 23.9 11.3 36 9.4 SW 22 26 12 14 1009.5 1009.5 0.0
31/06:00am 27.2 22.9 10.8 36 9.3 SW 24 33 13 18 1009.3 1009.3 0.0
31/05:30am 26.8 22.9 9.6 34 9.5 SW 20 26 11 14 1009.1 1009.1 0.0
31/05:00am 27.6 23.8 9.0 31 10.2 SW 19 24 10 13 1008.7 1008.7 0.0
31/04:30am 27.8 23.7 8.6 30 10.5 SW 20 26 11 14 1008.5 1008.5 0.0
31/04:00am 28.1 24.1 8.4 29 10.8 WSW 19 26 10 14 1008.3 1008.3 0.0
31/03:30am 28.3 24.3 8.1 28 11.0 WSW 19 24 10 13 1008.2 1008.2 0.0
31/03:00am 28.9 24.6 8.0 27 11.4 WSW 20 28 11 15 1008.2 1008.2 0.0
31/02:30am 29.3 25.3 8.4 27 11.5 WSW 19 24 10 13 1008.1 1008.1 0.0
31/02:00am 29.8 25.2 8.2 26 11.9 WSW 22 32 12 17 1008.1 1008.1 0.0
31/01:30am 30.2 25.6 8.0 25 12.2 SW 22 32 12 17 1008.2 1008.2 0.0
31/01:00am 30.6 25.7 8.3 25 12.3 WSW 24 30 13 16 1008.4 1008.4 0.0
31/12:30am 30.6 26.3 9.5 27 11.9 WSW 22 28 12 15 1008.6 1008.6 0.0
31/12:00am 30.6 26.8 11.1 30 11.3 W 22 26 12 14 1008.8 1008.8 0.0
 
Date/Time
WST
Temp
°C
App
Temp
°C
Dew
Point
Rel
Hum
%
Delta-T
°C
Wind Press
QNH
hPa
Press
MSL
hPa
Rain
since 9 am
mm
Dir
 
Spd
km/h
Gust
km/h
Spd
kts
Gust
kts
30/11:30pm 30.9 27.1 11.3 30 11.4 WSW 22 28 12 15 1009.1 1009.1 0.0
30/11:00pm 31.2 27.7 12.1 31 11.2 WSW 22 28 12 15 1009.4 1009.4 0.0
30/10:30pm 31.1 27.9 12.0 31 11.2 WSW 20 28 11 15 1009.6 1009.6 0.0
30/10:00pm 30.7 27.2 12.1 32 10.9 W 22 28 12 15 1009.8 1009.8 0.0
30/09:30pm 30.8 27.6 13.1 34 10.5 W 22 26 12 14 1009.7 1009.7 0.0
30/09:00pm 31.2 28.8 14.4 36 10.2 W 20 28 11 15 1009.5 1009.5 0.0
30/08:30pm 31.2 28.7 15.2 38 9.9 W 22 28 12 15 1009.4 1009.4 0.0
30/08:00pm 31.4 28.6 15.4 38 9.9 W 24 32 13 17 1009.1 1009.1 0.0
30/07:30pm 32.1 29.0 15.6 37 10.3 W 26 32 14 17 1008.8 1008.8 0.0
30/07:00pm 32.7 30.6 16.1 37 10.4 WNW 22 30 12 16 1008.4 1008.4 0.0
30/06:30pm 32.8 31.7 18.6 43 9.2 WNW 22 30 12 16 1008.0 1008.0 0.0
30/06:00pm 34.6 32.4 16.9 35 11.3 WNW 24 32 13 17 1007.8 1007.8 0.0
30/05:30pm 35.6 31.5 15.9 31 12.4 WNW 32 39 17 21 1007.4 1007.4 0.0
30/05:00pm 36.7 31.5 14.6 26 13.8 WNW 35 43 19 23 1007.2 1007.2 0.0
30/04:30pm 38.0 33.0 13.3 23 15.2 WNW 32 41 17 22 1007.0 1007.0 0.0
30/04:00pm 38.9 34.1 14.7 24 15.2 WNW 33 43 18 23 1007.0 1007.0 0.0
30/03:30pm 39.3 34.2 13.7 22 15.9 WNW 33 44 18 24 1007.0 1007.0 0.0
30/03:00pm 39.9 34.5 12.7 20 16.7 WNW 33 43 18 23 1007.2 1007.2 0.0
30/02:30pm 39.8 34.6 13.3 20 16.4 WNW 33 44 18 24 1007.4 1007.4 0.0
30/02:00pm 39.4 35.0 15.1 24 15.4 WNW 32 37 17 20 1007.7 1007.7 0.0
30/01:30pm 40.5 36.2 13.2 20 16.9 NNW 28 35 15 19 1008.0 1008.0 0.0
30/01:00pm 39.6 35.3 13.2 21 16.3 NW 28 35 15 19 1008.2 1008.2 0.0
30/12:30pm 40.8 34.8 7.0 13 19.2 NNW 28 35 15 19 1008.5 1008.5 0.0
30/12:00pm 40.9 37.8 7.1 13 19.2 N 13 19 7 10 1008.7 1008.7 0.0
30/11:30am 41.4 38.7 3.7 10 20.4 WSW 7 19 4 10 1009.2 1009.2 0.0
30/11:00am 40.3 37.4 2.8 10 20.0 S 7 17 4 9 1009.6 1009.6 0.0
30/10:30am 40.8 35.5 3.2 10 20.2 SSW 20 28 11 15 1010.0 1010.0 0.0
30/10:00am 38.9 34.9 3.1 11 19.0 SE 13 20 7 11 1010.3 1010.3 0.0
30/09:30am 38.3 34.9 3.9 12 18.4 SSE 11 19 6 10 1010.8 1010.8 0.0
30/09:00am 37.7 34.0 4.6 13 17.9 SSE 13 19 7 10 1011.0 1011.0 0.0
30/08:30am 36.0 33.0 6.2 16 16.3 SSE 11 19 6 10 1011.1 1011.1 0.0
30/08:00am 34.1 30.4 6.4 18 15.1 S 15 19 8 10 1010.9 1010.9 0.0
30/07:30am 31.7 29.7 8.7 24 12.8 SSW 9 11 5 6 1010.8 1010.8 0.0
30/07:00am 30.0 27.7 9.0 27 11.7 SSW 11 13 6 7 1010.7 1010.7 0.0
30/06:30am 25.1 24.6 10.6 40 8.1 WSW 4 9 2 5 1010.6 1010.6 0.0
30/06:00am 22.9 22.8 9.3 42 7.3 CALM 0 6 0 3 1010.4 1010.4 0.0
30/05:30am 23.7 22.5 10.4 43 7.3 WNW 7 9 4 5 1009.9 1009.9 0.0
30/05:00am 23.4 22.0 10.8 45 7.0 W 9 11 5 6 1009.6 1009.6 0.0
30/04:30am 23.6 22.3 11.3 46 6.9 WNW 9 11 5 6 1009.5 1009.5 0.0
30/04:00am 24.2 22.8 10.8 43 7.5 WNW 9 11 5 6 1009.3 1009.3 0.0
30/03:30am 24.6 23.5 10.8 42 7.7 W 7 9 4 5 1009.2 1009.2 0.0
30/03:00am 24.5 23.4 10.8 42 7.7 WNW 7 9 4 5 1009.1 1009.1 0.0
30/02:30am 24.6 24.4 10.5 41 7.8 ENE 2 6 1 3 1009.0 1009.0 0.0
30/02:00am 27.2 24.9 10.4 35 9.4 SW 13 17 7 9 1009.2 1009.2 0.0
30/01:30am 27.9 24.5 10.6 34 9.8 WSW 19 24 10 13 1009.2 1009.2 0.0
30/01:00am 28.1 25.1 10.8 34 9.8 WSW 17 24 9 13 1009.3 1009.3 0.0
30/12:30am 28.1 24.6 10.8 34 9.8 WSW 20 22 11 12 1009.5 1009.5 0.0
30/12:00am 27.1 24.4 10.3 35 9.4 W 15 17 8 9 1010.0 1010.0 0.0
 
Date/Time
WST
Temp
°C
App
Temp
°C
Dew
Point
Rel
Hum
%
Delta-T
°C
Wind Press
QNH
hPa
Press
MSL
hPa
Rain
since 9 am
mm
Dir
 
Spd
km/h
Gust
km/h
Spd
kts
Gust
kts
29/11:30pm 27.1 23.9 9.9 34 9.6 WNW 17 20 9 11 1010.3 1010.3 0.0
29/11:00pm 26.9 25.3 8.8 32 9.9 W 7 11 4 6 1010.6 1010.6 0.0
29/10:30pm 27.4 26.2 9.7 33 9.8 W 6 9 3 5 1010.8 1010.8 0.0
29/10:00pm 28.2 25.8 11.3 35 9.7 W 15 20 8 11 1010.7 1010.7 0.0
29/09:30pm 28.6 25.8 12.5 37 9.4 W 19 24 10 13 1010.7 1010.7 0.0
29/09:00pm 28.9 26.1 13.2 38 9.3 W 20 26 11 14 1010.7 1010.7 0.0
29/08:30pm 29.5 26.7 13.3 37 9.6 W 20 24 11 13 1010.6 1010.6 0.0
29/08:00pm 29.5 26.6 16.0 44 8.4 WNW 26 32 14 17 1010.3 1010.3 0.0
29/07:30pm 29.7 27.2 16.1 43 8.4 WNW 24 32 13 17 1010.0 1010.0 0.0
29/07:00pm 30.4 27.1 14.9 39 9.5 WNW 26 33 14 18 1009.7 1009.7 0.0

Other Formats:

Comma delimited format used in spreadsheet applications
http://www.bom.gov.au/fwo/IDW60801/IDW60801.94308.axf

JavaScript Object Notation format (JSON) in row-major order
http://www.bom.gov.au/fwo/IDW60801/IDW60801.94308.json